Flight Track Log - Related Links

Times and Time Zones

All times are in EDT time to prevent confusion due to time zone crossing. See the SWA2436 flight status page for this flight to view local times or setup timezone preferences in your user account.

Time Position Orientation Groundspeed Altitude Reporting Facility
EDT Latitude Longitude Course Direction KTS MPH feet Rate Location/Type
Tue 10:45:21 PM 29.9822 -90.2536 203° Southwest 148 170 700  Level Houston Center
Tue 10:45:58 PM 29.9556 -90.2667 203° Southwest 162 186 2,000 2,066 Climbing Houston Center
Tue 10:46:22 PM 29.9492 -90.2875 251° West 273 314 2,800 3,882 Climbing Houston Center
Tue 10:47:23 PM 29.9433 -90.3747 266° West 274 315 7,500 4,279 Climbing Houston Center
Tue 10:48:24 PM 29.9367 -90.4664 265° West 284 327 11,500 3,393 Climbing Houston Center
Tue 10:49:25 PM 29.9256 -90.5786 264° West 352 405 14,400 3,393 Climbing Houston Center
Tue 10:50:26 PM 29.9125 -90.6964 263° West 370 426 18,400 3,561 Climbing Houston Center
Tue 10:51:28 PM 29.8978 -90.8169 262° West 379 436 21,700 2,976 Climbing Houston Center
Tue 10:52:29 PM 29.8825 -90.9456 262° West 400 460 24,500 2,951 Climbing Houston Center
Tue 10:53:30 PM 29.8550 -91.1011 259° West 414 476 27,700 3,000 Climbing Houston Center
Tue 10:54:31 PM 29.8339 -91.2333 260° West 418 481 30,600 2,705 Climbing Houston Center
Tue 10:55:32 PM 29.8136 -91.3622 260° West 411 473 33,200 1,672 Climbing Houston Center
Tue 10:56:33 PM 29.7925 -91.4886 259° West 405 466 34,000 393 Climbing Houston Center
Tue 10:57:34 PM 29.7711 -91.6161 259° West 406 467 34,000  Level Houston Center
Tue 10:58:35 PM 29.7497 -91.7492 260° West 404 465 34,000  Level Houston Center
Tue 10:59:36 PM 29.7292 -91.8769 260° West 406 467 34,000  Level Houston Center
Tue 11:00:37 PM 29.7083 -92.0058 259° West 409 471 34,000  Level Houston Center
Tue 11:01:38 PM 29.6869 -92.1344 259° West 409 471 34,000  Level Houston Center
Tue 11:02:39 PM 29.6631 -92.2639 258° West 412 474 34,000  Level Houston Center
Tue 11:03:40 PM 29.6436 -92.3931 260° West 411 473 34,000  Level Houston Center
Tue 11:04:41 PM 29.6200 -92.5225 258° West 413 475 34,000  Level Houston Center
Tue 11:05:42 PM 29.5986 -92.6514 259° West 411 473 34,000  Level Houston Center
Tue 11:06:42 PM 29.5756 -92.7817 259° West 414 476 34,000  Level Houston Center
Tue 11:07:43 PM 29.5522 -92.9142 259° West 419 482 34,000  Level Houston Center
Tue 11:08:44 PM 29.5286 -93.0453 258° West 420 483 34,000  Level Houston Center
Tue 11:09:45 PM 29.5069 -93.1736 259° West 410 472 34,000  Level Houston Center
Tue 11:10:46 PM 29.4847 -93.2989 259° West 402 463 34,000 -836 Level Houston Center
Tue 11:11:47 PM 29.4569 -93.4508 258° West 404 465 32,300 -2,066 Descending Houston Center
Tue 11:12:48 PM 29.4353 -93.5722 258° West 392 451 29,800 -2,361 Descending Houston Center
Tue 11:13:49 PM 29.4142 -93.6889 258° West 377 434 27,500 -2,300 Descending Houston Center
Tue 11:14:48 PM 29.3933 -93.8064 259° West 360 414 25,200 -2,066 Descending Houston Center
Tue 11:15:51 PM 29.3761 -93.8992 258° West 352 405 23,300 -1,694 Descending Houston Center
Tue 11:16:52 PM 29.3572 -94.0033 258° West 339 390 21,700 -1,820 Descending Houston Center
Tue 11:17:53 PM 29.3386 -94.1053 258° West 330 380 19,600 -2,016 Descending Houston Center
Tue 11:18:54 PM 29.3203 -94.2028 258° West 316 364 17,600 -2,260 Descending Houston Center
Tue 11:19:10 PM 29.3125 -94.2492 259° West 313 360 16,700 -2,262 Descending Houston Center
Tue 11:19:55 PM 29.2917 -94.3139 250° West 304 350 15,300 -1,869 Descending Houston Center
Tue 11:20:11 PM 29.2817 -94.3394 246° West 302 348 14,800 -1,770 Descending Houston Center
Tue 11:20:56 PM 29.2739 -94.4092 263° West 307 353 13,500 -2,000 Descending Houston Center
Tue 11:21:11 PM 29.2703 -94.4369 262° West 310 357 12,800 -1,500 Descending Houston Center
Tue 11:21:56 PM 29.2792 -94.5092 278° West 320 368 12,000 -984 Descending Houston Center
Tue 11:22:12 PM 29.2906 -94.5375 295° West 343 395 11,800 -1,279 Descending Houston Center
Tue 11:22:57 PM 29.3256 -94.6031 301° West 337 388 10,700 -1,475 Descending Houston Center
Tue 11:23:13 PM 29.3375 -94.6297 297° West 324 373 10,300 -1,475 Descending Houston Center
Tue 11:23:58 PM 29.3675 -94.6886 300° West 315 362 9,200 -1,574 Descending Houston Center
Tue 11:24:14 PM 29.3817 -94.7178 299° West 303 349 8,700 -1,180 Descending Houston Center
Tue 11:24:59 PM 29.4089 -94.7728 300° West 306 352 8,000 -689 Descending Houston Center
Tue 11:25:15 PM 29.4236 -94.8036 299° West 305 351 8,000  Level Houston Center
Tue 11:26:00 PM 29.4511 -94.8561 301° West 303 349 8,000  Level Houston Center
Tue 11:26:15 PM 29.4633 -94.8875 294° West 303 349 8,000 -885 Level Houston Center
Tue 11:27:01 PM 29.4925 -94.9419 302° West 306 352 7,100 -1,082 Descending Houston Center
Tue 11:27:16 PM 29.5075 -94.9781 296° West 310 357 6,900 -1,100 Descending Houston Center
Tue 11:28:01 PM 29.5256 -95.0339 290° West 310 357 6,000 -885 Descending Houston Center
Tue 11:28:17 PM 29.5353 -95.0706 287° West 313 360 6,000  Level Houston Center
Tue 11:29:02 PM 29.5522 -95.1283 289° West 310 357 6,000  Level Houston Center
Tue 11:30:03 PM 29.5803 -95.2261 288° West 309 356 6,000 -148 Level Houston Center
Tue 11:31:04 PM 29.6050 -95.3094 289° West 273 314 5,700 -787 Descending Houston Center
Tue 11:32:05 PM 29.6292 -95.3869 290° West 260 299 4,400 -1,421 Descending Houston Center
Tue 11:32:20 PM 29.6419 -95.4061 307° West 258 297 3,900 -1,500 Descending Houston Center
Tue 11:33:05 PM 29.6772 -95.4508 312° West 263 303 2,900 -934 Descending Houston Center
Tue 11:34:22 PM 29.7458 -95.4178 23° Northeast 197 227 2,000 -443 Descending Houston Center
Tue 11:35:07 PM 29.7364 -95.3886 110° East 196 226 2,000 -170 Level Houston Center
Tue 11:36:08 PM 29.7117 -95.3578 133° Southeast 155 178 1,700 -397 Descending Houston Center
Tue 11:37:08 PM 29.6900 -95.3322 134° Southeast 132 152 1,200 -545 Descending Houston Center
Tue 11:38:09 PM 29.6697 -95.3086 135° Southeast 115 132 600 -590 Descending Houston Center

Login

Don't have an account? Register now (free) for customized features, flight alerts, and more!